createdAt,value
2022-12-03T00:02:15.308Z,102205.00
2022-12-03T00:04:41.885Z,102202.00
2022-12-03T00:07:08.297Z,102204.00
2022-12-03T00:09:34.813Z,102198.00
2022-12-03T00:12:01.302Z,102208.00
2022-12-03T00:14:27.748Z,102201.00
2022-12-03T00:16:54.172Z,102199.00
2022-12-03T00:19:20.950Z,102195.00
2022-12-03T00:21:48.357Z,102199.00
2022-12-03T00:24:15.010Z,102195.00
2022-12-03T00:26:41.616Z,102195.00
2022-12-03T00:29:08.121Z,102194.00
2022-12-03T00:31:34.810Z,102188.00
2022-12-03T00:34:01.520Z,102189.00
2022-12-03T00:36:27.945Z,102190.00
2022-12-03T00:38:55.078Z,102195.00
2022-12-03T00:41:21.736Z,102187.00
2022-12-03T00:43:48.379Z,102188.00
2022-12-03T00:46:19.698Z,102187.00
2022-12-03T00:48:47.755Z,102187.00
2022-12-03T00:51:15.781Z,102188.00
2022-12-03T00:53:42.310Z,102190.00
2022-12-03T00:56:08.944Z,102194.00
2022-12-03T00:58:35.397Z,102182.00
2022-12-03T01:01:02.194Z,102191.00
2022-12-03T01:03:29.123Z,102198.00
2022-12-03T01:05:55.548Z,102195.00
2022-12-03T01:08:21.976Z,102192.00
2022-12-03T01:10:48.581Z,102193.00
2022-12-03T01:13:15.014Z,102189.00
2022-12-03T01:15:41.500Z,102193.00
2022-12-03T01:18:07.943Z,102194.00
2022-12-03T01:20:36.368Z,102194.00
2022-12-03T01:23:02.793Z,102201.00
2022-12-03T01:25:29.317Z,102184.00
2022-12-03T01:27:55.996Z,102182.00
2022-12-03T01:30:22.397Z,102191.00
2022-12-03T01:32:48.814Z,102189.00
2022-12-03T01:35:15.405Z,102184.00
2022-12-03T01:37:41.905Z,102190.00
2022-12-03T01:40:12.221Z,102191.00
2022-12-03T01:42:41.966Z,102187.00
2022-12-03T01:45:22.687Z,102185.00
2022-12-03T01:47:49.591Z,102188.00
2022-12-03T01:50:25.702Z,102191.00
2022-12-03T01:53:01.711Z,102185.00
2022-12-03T01:55:28.522Z,102182.00
2022-12-03T01:57:58.818Z,102175.00
2022-12-03T02:00:27.276Z,102172.00
2022-12-03T02:03:02.951Z,102185.00
2022-12-03T02:05:33.791Z,102192.00
2022-12-03T02:08:00.972Z,102181.00
2022-12-03T02:10:34.012Z,102182.00
2022-12-03T02:13:08.879Z,102179.00
2022-12-03T02:15:37.872Z,102192.00
2022-12-03T02:18:04.610Z,102186.00
2022-12-03T02:20:36.637Z,102185.00
2022-12-03T02:23:23.132Z,102189.00
2022-12-03T02:25:49.580Z,102191.00
2022-12-03T02:28:16.004Z,102187.00
2022-12-03T02:30:42.481Z,102187.00
2022-12-03T02:33:08.919Z,102169.00
2022-12-03T02:35:37.130Z,102179.00
2022-12-03T02:38:13.982Z,102186.00
2022-12-03T02:40:40.958Z,102176.00
2022-12-03T02:43:07.632Z,102179.00
2022-12-03T02:45:38.598Z,102174.00
2022-12-03T02:48:16.972Z,102180.00
2022-12-03T02:50:54.359Z,102184.00
2022-12-03T02:53:26.175Z,102181.00
2022-12-03T02:55:54.435Z,102182.00
2022-12-03T02:58:21.858Z,102184.00
2022-12-03T03:00:49.411Z,102180.00
2022-12-03T03:03:17.612Z,102179.00
2022-12-03T03:05:45.131Z,102188.00
2022-12-03T03:08:12.271Z,102187.00
2022-12-03T03:10:41.399Z,102184.00
2022-12-03T03:13:11.592Z,102174.00
2022-12-03T03:15:39.535Z,102170.00
2022-12-03T03:18:07.521Z,102172.00
2022-12-03T03:20:34.381Z,102172.00
2022-12-03T03:23:15.352Z,102175.00
2022-12-03T03:25:44.921Z,102176.00
2022-12-03T03:28:12.167Z,102168.00
2022-12-03T03:30:42.776Z,102161.00
2022-12-03T03:33:09.722Z,102167.00
2022-12-03T03:35:36.987Z,102159.00
2022-12-03T03:38:04.723Z,102174.00
2022-12-03T03:40:31.777Z,102153.00
2022-12-03T03:42:58.420Z,102149.00
2022-12-03T03:45:28.991Z,102151.00
2022-12-03T03:47:57.991Z,102140.00
2022-12-03T03:50:26.124Z,102159.00
2022-12-03T03:52:53.143Z,102146.00
2022-12-03T03:55:20.407Z,102139.00
2022-12-03T03:57:47.851Z,102136.00
2022-12-03T04:00:14.861Z,102136.00
2022-12-03T04:02:41.656Z,102139.00
2022-12-03T04:05:14.257Z,102137.00
2022-12-03T04:07:40.971Z,102137.00
2022-12-03T04:10:27.977Z,102127.00
2022-12-03T04:12:57.515Z,102135.00
2022-12-03T04:15:25.360Z,102120.00
2022-12-03T04:18:10.941Z,102136.00
2022-12-03T04:20:38.143Z,102130.00
2022-12-03T04:23:05.821Z,102134.00
2022-12-03T04:25:51.444Z,102127.00
2022-12-03T04:28:36.434Z,102125.00
2022-12-03T04:31:26.077Z,102132.00
2022-12-03T04:34:11.675Z,102132.00
2022-12-03T04:36:40.460Z,102122.00
2022-12-03T04:39:07.075Z,102118.00
2022-12-03T04:41:33.485Z,102121.00
2022-12-03T04:44:18.455Z,102119.00
2022-12-03T04:46:44.888Z,102120.00
2022-12-03T04:49:11.500Z,102114.00
2022-12-03T04:51:37.948Z,102128.00
2022-12-03T04:54:04.408Z,102118.00
2022-12-03T04:56:30.989Z,102126.00
2022-12-03T04:58:57.541Z,102110.00
2022-12-03T05:01:25.517Z,102118.00
2022-12-03T05:03:52.091Z,102115.00
2022-12-03T05:06:18.653Z,102107.00
2022-12-03T05:08:45.272Z,102112.00
2022-12-03T05:11:11.706Z,102113.00
2022-12-03T05:13:38.143Z,102116.00
2022-12-03T05:16:06.180Z,102107.00
2022-12-03T05:18:32.723Z,102100.00
2022-12-03T05:20:59.271Z,102111.00
2022-12-03T05:23:25.822Z,102106.00
2022-12-03T05:25:52.342Z,102110.00
2022-12-03T05:28:20.289Z,102092.00
2022-12-03T05:30:46.809Z,102103.00
2022-12-03T05:33:13.398Z,102108.00
2022-12-03T05:35:40.099Z,102100.00
2022-12-03T05:38:06.517Z,102110.00
2022-12-03T05:40:32.995Z,102115.00
2022-12-03T05:43:01.716Z,102108.00
2022-12-03T05:45:35.120Z,102119.00
2022-12-03T05:48:03.474Z,102114.00
2022-12-03T05:50:33.887Z,102106.00
2022-12-03T05:53:00.417Z,102089.00
2022-12-03T05:55:27.205Z,102090.00
2022-12-03T05:57:53.997Z,102085.00
2022-12-03T06:00:23.858Z,102095.00
2022-12-03T06:02:50.920Z,102087.00
2022-12-03T06:05:19.462Z,102095.00
2022-12-03T06:07:46.858Z,102090.00
2022-12-03T06:10:17.504Z,102090.00
2022-12-03T06:12:44.142Z,102094.00
2022-12-03T06:15:11.507Z,102079.00
2022-12-03T06:17:38.064Z,102092.00
2022-12-03T06:20:05.228Z,102092.00
2022-12-03T06:22:31.970Z,102092.00
2022-12-03T06:25:03.410Z,102088.00
2022-12-03T06:27:32.923Z,102093.00
2022-12-03T06:29:59.350Z,102084.00
2022-12-03T06:32:25.857Z,102089.00
2022-12-03T06:34:52.828Z,102091.00
2022-12-03T06:37:19.709Z,102099.00
2022-12-03T06:39:46.131Z,102091.00
2022-12-03T06:42:12.559Z,102090.00
2022-12-03T06:44:39.316Z,102086.00
2022-12-03T06:47:05.765Z,102096.00
2022-12-03T06:49:32.492Z,102094.00
2022-12-03T06:51:59.142Z,102098.00
2022-12-03T06:54:25.558Z,102103.00
2022-12-03T06:56:52.120Z,102097.00
2022-12-03T06:59:18.792Z,102089.00
2022-12-03T07:01:45.459Z,102089.00
2022-12-03T07:04:12.000Z,102089.00
2022-12-03T07:06:38.455Z,102086.00
2022-12-03T07:09:05.033Z,102083.00
2022-12-03T07:11:31.479Z,102082.00
2022-12-03T07:14:04.694Z,102078.00
2022-12-03T07:16:32.259Z,102089.00
2022-12-03T07:18:58.770Z,102088.00
2022-12-03T07:21:25.355Z,102072.00
2022-12-03T07:23:51.929Z,102085.00
2022-12-03T07:26:18.357Z,102082.00
2022-12-03T07:28:44.876Z,102084.00
2022-12-03T07:31:11.416Z,102083.00
2022-12-03T07:33:37.901Z,102086.00
2022-12-03T07:36:04.550Z,102086.00
2022-12-03T07:38:31.070Z,102082.00
2022-12-03T07:40:57.502Z,102073.00
2022-12-03T07:43:24.122Z,102080.00
2022-12-03T07:45:50.710Z,102078.00
2022-12-03T07:48:17.134Z,102075.00
2022-12-03T07:50:45.232Z,102073.00
2022-12-03T07:53:11.721Z,102080.00
2022-12-03T07:55:38.143Z,102088.00
2022-12-03T07:58:04.891Z,102076.00
2022-12-03T08:00:31.732Z,102089.00
2022-12-03T08:02:58.283Z,102088.00
2022-12-03T08:05:24.755Z,102078.00
2022-12-03T08:07:51.278Z,102071.00
2022-12-03T08:10:18.283Z,102077.00
2022-12-03T08:12:44.825Z,102066.00
2022-12-03T08:15:17.956Z,102072.00
2022-12-03T08:17:53.867Z,102078.00
2022-12-03T08:20:23.794Z,102069.00
2022-12-03T08:22:52.164Z,102074.00
2022-12-03T08:25:23.288Z,102081.00
2022-12-03T08:27:51.277Z,102075.00
2022-12-03T08:30:18.340Z,102062.00
2022-12-03T08:32:44.972Z,102072.00
2022-12-03T08:35:24.919Z,102069.00
2022-12-03T08:38:02.373Z,102069.00
2022-12-03T08:40:35.773Z,102064.00
2022-12-03T08:43:06.065Z,102063.00
2022-12-03T08:45:39.296Z,102067.00
2022-12-03T08:48:11.921Z,102065.00
2022-12-03T08:50:40.638Z,102063.00
2022-12-03T08:53:12.953Z,102058.00
2022-12-03T08:55:46.623Z,102066.00
2022-12-03T08:58:25.704Z,102065.00
2022-12-03T09:00:57.866Z,102064.00
2022-12-03T09:03:24.680Z,102058.00
2022-12-03T09:05:51.399Z,102060.00
2022-12-03T09:08:17.979Z,102058.00
2022-12-03T09:10:44.652Z,102061.00
2022-12-03T09:13:11.118Z,102060.00
2022-12-03T09:15:37.672Z,102061.00
2022-12-03T09:18:04.152Z,102051.00
2022-12-03T09:20:30.592Z,102057.00
2022-12-03T09:22:57.035Z,102053.00
2022-12-03T09:25:23.464Z,102044.00
2022-12-03T09:27:49.993Z,102050.00
2022-12-03T09:30:16.526Z,102047.00
2022-12-03T09:32:43.128Z,102035.00
2022-12-03T09:35:09.707Z,102047.00
2022-12-03T09:37:36.164Z,102039.00
2022-12-03T09:40:03.955Z,102047.00
2022-12-03T09:42:30.606Z,102043.00
2022-12-03T09:44:57.203Z,102049.00
2022-12-03T09:47:23.862Z,102039.00
2022-12-03T09:49:50.758Z,102039.00
2022-12-03T09:52:23.873Z,102032.00
2022-12-03T09:54:51.423Z,102038.00
2022-12-03T09:57:18.729Z,102033.00
2022-12-03T09:59:45.834Z,102023.00
2022-12-03T10:02:28.756Z,102021.00
2022-12-03T10:04:56.644Z,102018.00
2022-12-03T10:07:24.941Z,102015.00
2022-12-03T10:09:52.258Z,102005.00
2022-12-03T10:12:23.288Z,102013.00
2022-12-03T10:14:50.037Z,102015.00
2022-12-03T10:17:16.935Z,102010.00
2022-12-03T10:19:44.659Z,102000.00
2022-12-03T10:22:11.078Z,102012.00
2022-12-03T10:24:38.139Z,101995.00
2022-12-03T10:27:20.867Z,102009.00
2022-12-03T10:30:01.647Z,102001.00
2022-12-03T10:32:40.615Z,102007.00
2022-12-03T10:35:14.024Z,101993.00
2022-12-03T10:38:01.548Z,101997.00
2022-12-03T10:40:33.597Z,101990.00
2022-12-03T10:43:18.359Z,101999.00
2022-12-03T10:45:47.480Z,101989.00
2022-12-03T10:48:18.992Z,102000.00
2022-12-03T10:50:53.197Z,101995.00
2022-12-03T10:53:23.343Z,101990.00
2022-12-03T10:55:52.104Z,101998.00
2022-12-03T10:58:24.304Z,101988.00
2022-12-03T11:00:54.632Z,101985.00
2022-12-03T11:03:27.095Z,101999.00
2022-12-03T11:05:54.922Z,101985.00
2022-12-03T11:08:35.062Z,101988.00
2022-12-03T11:11:15.057Z,101973.00
2022-12-03T11:13:41.514Z,101986.00
2022-12-03T11:16:10.844Z,101976.00
2022-12-03T11:18:37.440Z,101983.00
2022-12-03T11:21:05.652Z,101976.00
2022-12-03T11:23:44.423Z,101976.00
2022-12-03T11:26:18.880Z,101964.00
2022-12-03T11:28:49.202Z,101975.00
2022-12-03T11:31:44.080Z,101966.00
2022-12-03T11:34:17.060Z,101959.00
2022-12-03T11:37:11.496Z,101954.00
2022-12-03T11:39:59.346Z,101948.00
2022-12-03T11:42:25.802Z,101946.00
2022-12-03T11:45:04.504Z,101949.00
2022-12-03T11:47:46.465Z,101946.00
2022-12-03T11:50:22.983Z,101941.00
2022-12-03T11:52:55.392Z,101937.00
2022-12-03T11:55:32.882Z,101943.00
2022-12-03T11:58:05.946Z,101943.00
2022-12-03T12:00:32.414Z,101926.00
2022-12-03T12:02:59.824Z,101942.00
2022-12-03T12:05:35.732Z,101940.00
2022-12-03T12:08:02.789Z,101941.00
2022-12-03T12:10:47.634Z,101937.00
2022-12-03T12:13:32.211Z,101940.00
2022-12-03T12:15:58.974Z,101932.00
2022-12-03T12:18:39.258Z,101935.00
2022-12-03T12:21:43.876Z,101947.00
2022-12-03T12:24:52.728Z,101945.00
2022-12-03T12:27:23.388Z,101943.00
2022-12-03T12:30:01.340Z,101949.00
2022-12-03T12:32:41.401Z,101945.00
2022-12-03T12:35:25.214Z,101945.00
2022-12-03T12:38:10.915Z,101936.00
2022-12-03T12:40:39.511Z,101936.00
2022-12-03T12:43:25.781Z,101933.00
2022-12-03T12:45:56.779Z,101914.00
2022-12-03T12:48:26.120Z,101925.00
2022-12-03T12:51:12.144Z,101922.00
2022-12-03T12:53:40.476Z,101913.00
2022-12-03T12:56:15.216Z,101922.00
2022-12-03T12:58:41.918Z,101912.00
2022-12-03T13:01:24.060Z,101918.00
2022-12-03T13:03:51.864Z,101909.00
2022-12-03T13:06:25.143Z,101902.00
2022-12-03T13:08:52.871Z,101892.00
2022-12-03T13:11:25.141Z,101904.00
2022-12-03T13:13:51.956Z,101899.00
2022-12-03T13:16:23.242Z,101897.00
2022-12-03T13:18:57.068Z,101904.00
2022-12-03T13:21:26.749Z,101901.00
2022-12-03T13:23:55.604Z,101892.00
2022-12-03T13:26:38.152Z,101890.00
2022-12-03T13:29:16.435Z,101888.00
2022-12-03T13:31:50.876Z,101890.00
2022-12-03T13:34:25.719Z,101894.00
2022-12-03T13:39:44.500Z,101883.00
2022-12-03T13:42:40.943Z,101888.00
2022-12-03T13:45:13.640Z,101887.00
2022-12-03T13:47:41.706Z,101874.00
2022-12-03T13:50:44.977Z,101871.00
2022-12-03T13:53:11.532Z,101873.00
2022-12-03T13:56:23.612Z,101880.00
2022-12-03T13:58:50.222Z,101876.00
2022-12-03T14:01:16.752Z,101882.00
2022-12-03T14:03:43.236Z,101870.00
2022-12-03T14:06:09.924Z,101874.00
2022-12-03T14:08:37.240Z,101885.00
2022-12-03T14:11:03.802Z,101879.00
2022-12-03T14:13:30.421Z,101874.00
2022-12-03T14:15:57.064Z,101878.00
2022-12-03T14:18:23.577Z,101887.00
2022-12-03T14:20:50.012Z,101886.00
2022-12-03T14:23:16.426Z,101874.00
2022-12-03T14:25:45.734Z,101876.00
2022-12-03T14:28:12.237Z,101885.00
2022-12-03T14:30:38.911Z,101878.00
2022-12-03T14:33:05.543Z,101883.00
2022-12-03T14:35:32.342Z,101882.00
2022-12-03T14:37:58.796Z,101879.00
2022-12-03T14:40:25.843Z,101878.00
2022-12-03T14:42:52.292Z,101881.00
2022-12-03T14:45:20.218Z,101864.00
2022-12-03T14:47:47.980Z,101873.00
2022-12-03T14:50:14.752Z,101873.00
2022-12-03T14:52:41.458Z,101888.00
2022-12-03T14:55:08.360Z,101887.00
2022-12-03T14:57:34.793Z,101883.00
2022-12-03T15:00:01.287Z,101881.00
2022-12-03T15:02:28.775Z,101882.00
2022-12-03T15:04:55.347Z,101883.00
2022-12-03T15:07:21.905Z,101878.00
2022-12-03T15:09:48.325Z,101885.00
2022-12-03T15:12:14.815Z,101893.00
2022-12-03T15:14:41.386Z,101890.00
2022-12-03T15:17:07.866Z,101885.00
2022-12-03T15:19:34.531Z,101891.00
2022-12-03T15:22:00.957Z,101882.00
2022-12-03T15:24:27.379Z,101885.00
2022-12-03T15:26:53.906Z,101875.00
2022-12-03T15:29:20.477Z,101884.00
2022-12-03T15:31:47.338Z,101885.00
2022-12-03T15:34:18.744Z,101889.00
2022-12-03T15:36:48.449Z,101878.00
2022-12-03T15:39:14.932Z,101888.00
2022-12-03T15:41:41.502Z,101885.00
2022-12-03T15:44:08.201Z,101884.00
2022-12-03T15:46:34.767Z,101874.00
2022-12-03T15:49:01.397Z,101881.00
2022-12-03T15:51:27.820Z,101884.00
2022-12-03T15:53:54.289Z,101881.00
2022-12-03T15:56:20.768Z,101893.00
2022-12-03T15:58:47.261Z,101885.00
2022-12-03T16:01:13.954Z,101891.00
2022-12-03T16:03:42.595Z,101878.00
2022-12-03T16:06:09.372Z,101880.00
2022-12-03T16:08:36.055Z,101885.00
2022-12-03T16:11:02.512Z,101878.00
2022-12-03T16:13:28.966Z,101887.00
2022-12-03T16:15:55.447Z,101880.00
2022-12-03T16:18:21.998Z,101884.00
2022-12-03T16:20:48.599Z,101875.00
2022-12-03T16:23:15.215Z,101864.00
2022-12-03T16:25:41.675Z,101873.00
2022-12-03T16:28:08.139Z,101875.00
2022-12-03T16:30:35.963Z,101873.00
2022-12-03T16:33:02.446Z,101875.00
2022-12-03T16:35:28.913Z,101874.00
2022-12-03T16:37:55.357Z,101870.00
2022-12-03T16:40:21.969Z,101870.00
2022-12-03T16:42:48.438Z,101872.00
2022-12-03T16:45:29.725Z,101860.00
2022-12-03T16:47:56.357Z,101853.00
2022-12-03T16:50:29.345Z,101870.00
2022-12-03T16:52:56.415Z,101861.00
2022-12-03T16:55:22.962Z,101869.00
2022-12-03T16:57:49.631Z,101865.00
2022-12-03T17:00:16.826Z,101878.00
2022-12-03T17:02:43.359Z,101870.00
2022-12-03T17:05:09.873Z,101872.00
2022-12-03T17:07:36.450Z,101870.00
2022-12-03T17:10:03.457Z,101869.00
2022-12-03T17:12:54.183Z,101865.00
2022-12-03T17:15:17.927Z,101874.00
2022-12-03T17:17:44.355Z,101871.00
2022-12-03T17:20:12.503Z,101865.00
2022-12-03T17:22:39.032Z,101865.00
2022-12-03T17:25:05.504Z,101860.00
2022-12-03T17:27:31.979Z,101865.00
2022-12-03T17:29:58.724Z,101873.00
2022-12-03T17:32:25.167Z,101860.00
2022-12-03T17:34:51.580Z,101853.00
2022-12-03T17:37:18.168Z,101855.00
2022-12-03T17:39:44.781Z,101861.00
2022-12-03T17:42:11.339Z,101855.00
2022-12-03T17:44:37.804Z,101856.00
2022-12-03T17:47:04.482Z,101860.00
2022-12-03T17:49:31.802Z,101861.00
2022-12-03T17:51:58.702Z,101857.00
2022-12-03T17:54:34.137Z,101855.00
2022-12-03T17:57:11.923Z,101849.00
2022-12-03T17:59:38.332Z,101862.00
2022-12-03T18:02:04.890Z,101863.00
2022-12-03T18:04:31.458Z,101854.00
2022-12-03T18:07:02.113Z,101856.00
2022-12-03T18:09:28.991Z,101854.00
2022-12-03T18:11:55.460Z,101862.00
2022-12-03T18:14:21.880Z,101846.00
2022-12-03T18:16:48.483Z,101859.00
2022-12-03T18:19:14.936Z,101853.00
2022-12-03T18:21:41.450Z,101859.00
2022-12-03T18:24:08.342Z,101854.00
2022-12-03T18:26:35.722Z,101856.00
2022-12-03T18:29:02.330Z,101852.00
2022-12-03T18:31:28.906Z,101855.00
2022-12-03T18:33:55.409Z,101852.00
2022-12-03T18:36:29.918Z,101854.00
2022-12-03T18:38:58.376Z,101854.00
2022-12-03T18:41:25.159Z,101836.00
2022-12-03T18:43:51.957Z,101842.00
2022-12-03T18:46:51.197Z,101845.00
2022-12-03T18:49:06.187Z,101849.00
2022-12-03T18:51:33.142Z,101852.00
2022-12-03T18:53:59.580Z,101842.00
2022-12-03T18:56:27.471Z,101850.00
2022-12-03T18:58:53.999Z,101851.00
2022-12-03T19:01:22.116Z,101848.00
2022-12-03T19:03:49.936Z,101849.00
2022-12-03T19:06:19.832Z,101846.00
2022-12-03T19:08:48.688Z,101843.00
2022-12-03T19:11:15.383Z,101851.00
2022-12-03T19:13:41.948Z,101848.00
2022-12-03T19:16:09.795Z,101851.00
2022-12-03T19:18:36.607Z,101860.00
2022-12-03T19:21:12.278Z,101859.00
2022-12-03T19:23:39.003Z,101861.00
2022-12-03T19:26:07.799Z,101857.00
2022-12-03T19:28:34.672Z,101863.00
2022-12-03T19:31:20.557Z,101869.00
2022-12-03T19:33:47.332Z,101859.00
2022-12-03T19:36:32.622Z,101860.00
2022-12-03T19:38:59.983Z,101854.00
2022-12-03T19:41:27.854Z,101857.00
2022-12-03T19:43:56.259Z,101864.00
2022-12-03T19:46:24.176Z,101858.00
2022-12-03T19:48:51.273Z,101857.00
2022-12-03T19:51:33.535Z,101860.00
2022-12-03T19:54:01.869Z,101869.00
2022-12-03T19:56:30.213Z,101848.00
2022-12-03T19:59:00.456Z,101856.00
2022-12-03T20:01:29.439Z,101861.00
2022-12-03T20:03:58.248Z,101856.00
2022-12-03T20:06:26.894Z,101851.00
2022-12-03T20:08:58.012Z,101849.00
2022-12-03T20:11:27.167Z,101846.00
2022-12-03T20:13:56.543Z,101849.00
2022-12-03T20:16:23.852Z,101850.00
2022-12-03T20:18:53.070Z,101848.00
2022-12-03T20:21:19.675Z,101850.00
2022-12-03T20:23:46.854Z,101849.00
2022-12-03T20:26:16.480Z,101855.00
2022-12-03T20:28:43.411Z,101854.00
2022-12-03T20:31:13.474Z,101869.00
2022-12-03T20:33:42.324Z,101860.00
2022-12-03T20:36:09.197Z,101862.00
2022-12-03T20:38:36.688Z,101851.00
2022-12-03T20:41:05.670Z,101849.00
2022-12-03T20:43:32.426Z,101849.00
2022-12-03T20:46:16.234Z,101856.00
2022-12-03T20:48:44.232Z,101855.00
2022-12-03T20:51:13.807Z,101854.00
2022-12-03T20:53:40.929Z,101858.00
2022-12-03T20:56:08.022Z,101861.00
2022-12-03T20:58:35.192Z,101853.00
2022-12-03T21:01:16.031Z,101862.00
2022-12-03T21:03:48.666Z,101856.00
2022-12-03T21:06:15.436Z,101861.00
2022-12-03T21:08:43.076Z,101853.00
2022-12-03T21:11:11.320Z,101848.00
2022-12-03T21:13:43.694Z,101855.00
2022-12-03T21:16:12.934Z,101847.00
2022-12-03T21:18:39.740Z,101854.00
2022-12-03T21:21:07.256Z,101853.00
2022-12-03T21:23:34.762Z,101862.00
2022-12-03T21:26:03.463Z,101851.00
2022-12-03T21:28:30.010Z,101851.00
2022-12-03T21:31:00.722Z,101850.00
2022-12-03T21:33:27.986Z,101850.00
2022-12-03T21:35:55.521Z,101839.00
2022-12-03T21:38:22.998Z,101848.00
2022-12-03T21:40:49.488Z,101839.00
2022-12-03T21:43:15.933Z,101837.00
2022-12-03T21:45:42.804Z,101832.00
2022-12-03T21:48:10.029Z,101835.00
2022-12-03T21:50:37.316Z,101822.00
2022-12-03T21:53:03.730Z,101835.00
2022-12-03T21:55:30.155Z,101841.00
2022-12-03T21:57:56.640Z,101835.00
2022-12-03T22:00:23.102Z,101832.00
2022-12-03T22:02:49.826Z,101840.00
2022-12-03T22:05:16.360Z,101840.00
2022-12-03T22:07:42.881Z,101851.00
2022-12-03T22:10:11.020Z,101830.00
2022-12-03T22:12:37.528Z,101847.00
2022-12-03T22:15:04.231Z,101837.00
2022-12-03T22:17:30.784Z,101834.00
2022-12-03T22:19:57.506Z,101829.00
2022-12-03T22:22:24.322Z,101825.00
2022-12-03T22:24:50.773Z,101825.00
2022-12-03T22:27:17.473Z,101828.00
2022-12-03T22:29:43.902Z,101828.00
2022-12-03T22:32:10.487Z,101832.00
2022-12-03T22:34:38.021Z,101827.00
2022-12-03T22:37:05.018Z,101829.00
2022-12-03T22:39:31.499Z,101823.00
2022-12-03T22:41:58.052Z,101828.00
2022-12-03T22:44:24.461Z,101818.00
2022-12-03T22:46:51.687Z,101823.00
2022-12-03T22:49:18.293Z,101817.00
2022-12-03T22:51:46.156Z,101814.00
2022-12-03T22:54:12.729Z,101814.00
2022-12-03T22:56:39.567Z,101816.00
2022-12-03T22:59:06.701Z,101820.00
2022-12-03T23:01:35.709Z,101813.00
2022-12-03T23:04:02.834Z,101806.00
2022-12-03T23:06:30.037Z,101812.00
2022-12-03T23:08:58.130Z,101796.00
2022-12-03T23:11:25.370Z,101804.00
2022-12-03T23:13:52.394Z,101810.00
2022-12-03T23:16:22.639Z,101807.00
2022-12-03T23:18:50.005Z,101798.00
2022-12-03T23:21:21.546Z,101805.00
2022-12-03T23:23:50.464Z,101800.00
2022-12-03T23:26:19.707Z,101800.00
2022-12-03T23:28:47.553Z,101801.00
2022-12-03T23:31:31.033Z,101796.00
2022-12-03T23:33:59.009Z,101802.00
2022-12-03T23:36:27.330Z,101790.00
2022-12-03T23:38:53.946Z,101794.00
2022-12-03T23:41:21.956Z,101800.00
2022-12-03T23:43:49.071Z,101789.00
2022-12-03T23:46:24.214Z,101784.00
2022-12-03T23:48:51.502Z,101787.00
2022-12-03T23:51:20.467Z,101778.00
2022-12-03T23:53:47.021Z,101777.00
2022-12-03T23:56:19.892Z,101786.00
2022-12-03T23:58:47.037Z,101778.00
